createdAt,value
2022-08-01T00:00:27.919Z,8.23
2022-08-01T00:05:31.632Z,7.97
2022-08-01T00:10:36.524Z,8.88
2022-08-01T00:15:41.439Z,9.13
2022-08-01T00:20:57.544Z,8.65
2022-08-01T00:26:02.620Z,8.65
2022-08-01T00:31:06.409Z,8.45
2022-08-01T00:36:09.988Z,8.45
2022-08-01T00:41:14.846Z,11.18
2022-08-01T00:46:18.351Z,9.43
2022-08-01T00:51:21.865Z,12.23
2022-08-01T00:56:27.943Z,11.88
2022-08-01T01:01:39.644Z,13.50
2022-08-01T01:06:50.670Z,15.32
2022-08-01T01:12:08.350Z,15.38
2022-08-01T01:17:13.657Z,15.32
2022-08-01T01:22:29.240Z,15.68
2022-08-01T01:27:44.148Z,15.93
2022-08-01T01:32:51.946Z,13.65
2022-08-01T01:38:02.338Z,12.32
2022-08-01T01:43:10.452Z,12.90
2022-08-01T01:48:18.855Z,11.10
2022-08-01T01:53:24.386Z,11.45
2022-08-01T01:58:29.761Z,10.38
2022-08-01T02:03:38.584Z,10.27
2022-08-01T02:08:43.764Z,9.75
2022-08-01T02:13:50.127Z,10.15
2022-08-01T02:18:55.161Z,10.20
2022-08-01T02:24:06.065Z,10.73
2022-08-01T02:29:15.399Z,10.60
2022-08-01T02:34:22.154Z,9.82
2022-08-01T02:39:28.817Z,9.75
2022-08-01T02:44:35.079Z,8.95
2022-08-01T02:49:44.166Z,9.05
2022-08-01T02:54:52.850Z,9.05
2022-08-01T02:59:59.886Z,9.98
2022-08-01T03:05:05.834Z,8.73
2022-08-01T03:10:11.867Z,7.63
2022-08-01T03:15:17.372Z,8.30
2022-08-01T03:20:25.737Z,8.10
2022-08-01T03:25:31.025Z,8.07
2022-08-01T03:30:37.394Z,9.18
2022-08-01T03:35:49.784Z,7.60
2022-08-01T03:40:57.709Z,7.68
2022-08-01T03:46:08.638Z,7.55
2022-08-01T03:51:14.968Z,7.15
2022-08-01T03:56:21.204Z,7.78
2022-08-01T04:01:25.524Z,8.15
2022-08-01T04:06:31.578Z,8.05
2022-08-01T04:11:35.848Z,9.70
2022-08-01T04:16:39.747Z,7.63
2022-08-01T04:21:44.574Z,9.13
2022-08-01T04:26:49.688Z,7.75
2022-08-01T04:31:56.568Z,8.05
2022-08-01T04:37:03.304Z,8.50
2022-08-01T04:42:08.214Z,6.38
2022-08-01T04:47:12.452Z,7.53
2022-08-01T04:52:22.952Z,7.22
2022-08-01T04:57:28.235Z,8.07
2022-08-01T05:02:31.855Z,6.70
2022-08-01T05:07:45.150Z,9.18
2022-08-01T05:12:49.075Z,8.80
2022-08-01T05:17:52.561Z,8.63
2022-08-01T05:22:58.223Z,7.65
2022-08-01T05:28:01.810Z,7.07
2022-08-01T05:33:05.377Z,7.03
2022-08-01T05:38:14.130Z,8.05
2022-08-01T05:43:18.673Z,7.35
2022-08-01T05:48:22.228Z,7.10
2022-08-01T05:53:27.322Z,6.78
2022-08-01T05:58:30.855Z,5.43
2022-08-01T06:03:34.444Z,6.25
2022-08-01T06:08:39.592Z,6.10
2022-08-01T06:13:48.148Z,5.60
2022-08-01T06:18:56.539Z,4.07
2022-08-01T06:24:01.818Z,2.72
2022-08-01T06:29:05.336Z,2.40
2022-08-01T06:34:08.782Z,1.70
2022-08-01T06:39:13.602Z,1.67
2022-08-01T06:44:17.078Z,1.20
2022-08-01T06:49:22.976Z,1.20
2022-08-01T06:54:27.896Z,1.38
2022-08-01T06:59:31.444Z,1.48
2022-08-01T07:04:35.069Z,1.35
2022-08-01T07:09:41.991Z,4.07
2022-08-01T07:14:45.489Z,1.40
2022-08-01T07:19:49.013Z,1.30
2022-08-01T07:24:54.254Z,1.70
2022-08-01T07:29:58.276Z,1.35
2022-08-01T07:35:01.792Z,1.67
2022-08-01T07:40:07.931Z,6.05
2022-08-01T07:45:12.686Z,1.42
2022-08-01T07:50:16.139Z,1.30
2022-08-01T07:55:21.243Z,1.45
2022-08-01T08:00:24.777Z,1.75
2022-08-01T08:05:57.754Z,1.45
2022-08-01T08:10:53.761Z,1.42
2022-08-01T08:15:59.604Z,1.50
2022-08-01T08:21:06.567Z,1.70
2022-08-01T08:26:11.986Z,2.13
2022-08-01T08:31:25.420Z,1.40
2022-08-01T08:36:39.162Z,1.90
2022-08-01T08:41:53.006Z,1.80
2022-08-01T08:46:59.231Z,1.83
2022-08-01T08:52:03.735Z,2.10
2022-08-01T08:57:11.549Z,2.38
2022-08-01T09:02:15.509Z,2.38
2022-08-01T09:07:19.077Z,1.67
2022-08-01T09:12:23.964Z,1.67
2022-08-01T09:17:27.476Z,1.50
2022-08-01T09:22:35.454Z,1.70
2022-08-01T09:27:44.425Z,0.88
2022-08-01T09:43:19.210Z,2.13
2022-08-01T09:48:28.106Z,6.53
2022-08-01T09:53:50.812Z,3.30
2022-08-01T09:59:01.983Z,2.90
2022-08-01T10:04:09.805Z,3.22
2022-08-01T10:09:15.898Z,3.95
2022-08-01T10:14:21.624Z,3.50
2022-08-01T10:19:28.901Z,3.30
2022-08-01T10:24:33.755Z,3.65
2022-08-01T10:29:59.779Z,5.35
2022-08-01T10:35:15.244Z,5.60
2022-08-01T10:40:35.367Z,4.32
2022-08-01T10:45:41.415Z,4.88
2022-08-01T10:50:48.573Z,4.07
2022-08-01T10:56:02.819Z,4.38
2022-08-01T11:01:23.923Z,3.90
2022-08-01T11:06:41.564Z,4.03
2022-08-01T11:12:01.071Z,3.70
2022-08-01T11:17:37.183Z,3.67
2022-08-01T11:23:24.793Z,3.33
2022-08-01T11:28:33.310Z,11.73
2022-08-01T11:33:51.862Z,3.07
2022-08-01T11:39:16.772Z,3.13
2022-08-01T11:44:26.908Z,2.95
2022-08-01T11:49:49.028Z,2.47
2022-08-01T11:54:55.195Z,2.95
2022-08-01T12:00:03.954Z,2.80
2022-08-01T12:05:24.889Z,2.97
2022-08-01T12:10:33.873Z,2.47
2022-08-01T12:15:39.438Z,2.55
2022-08-01T12:21:01.552Z,2.50
2022-08-01T12:26:05.224Z,3.83
2022-08-01T12:31:08.771Z,2.42
2022-08-01T12:36:14.830Z,2.85
2022-08-01T12:41:19.092Z,2.58
2022-08-01T12:46:22.694Z,2.58
2022-08-01T12:51:27.685Z,2.10
2022-08-01T12:56:34.577Z,2.03
2022-08-01T13:01:38.483Z,2.00
2022-08-01T13:06:43.551Z,2.05
2022-08-01T13:11:58.898Z,1.80
2022-08-01T13:22:13.712Z,1.90
2022-08-01T13:27:24.294Z,1.90
2022-08-01T13:32:32.306Z,1.90
2022-08-01T13:37:38.668Z,1.90
2022-08-01T13:42:42.693Z,2.17
2022-08-01T13:48:11.962Z,1.42
2022-08-01T13:53:11.947Z,6.72
2022-08-01T13:58:15.872Z,2.67
2022-08-01T14:03:19.438Z,2.10
2022-08-01T14:08:25.304Z,2.08
2022-08-01T14:13:33.808Z,1.63
2022-08-01T14:18:40.522Z,2.40
2022-08-01T14:23:49.204Z,2.60
2022-08-01T14:28:53.263Z,2.30
2022-08-01T14:33:56.926Z,1.38
2022-08-01T14:39:01.938Z,1.70
2022-08-01T14:44:06.876Z,2.03
2022-08-01T14:49:10.475Z,1.65
2022-08-01T14:54:15.531Z,1.48
2022-08-01T14:59:21.931Z,2.05
2022-08-01T15:04:25.950Z,0.88
2022-08-01T15:09:30.987Z,1.58
2022-08-01T15:14:52.811Z,0.90
2022-08-01T15:19:57.722Z,1.40
2022-08-01T15:25:03.783Z,1.30
2022-08-01T15:30:08.725Z,1.25
2022-08-01T15:35:12.378Z,1.20
2022-08-01T15:40:17.214Z,1.60
2022-08-01T15:45:47.260Z,1.30
2022-08-01T15:50:46.325Z,1.15
2022-08-01T15:55:52.573Z,1.35
2022-08-01T16:00:56.354Z,1.20
2022-08-01T16:05:59.856Z,1.40
2022-08-01T16:11:04.707Z,1.58
2022-08-01T16:16:09.405Z,1.58
2022-08-01T16:21:12.983Z,1.10
2022-08-01T16:26:27.185Z,1.10
2022-08-01T16:31:35.302Z,1.50
2022-08-01T16:36:47.035Z,1.23
2022-08-01T16:41:55.261Z,1.17
2022-08-01T16:46:59.020Z,1.05
2022-08-01T16:52:02.481Z,1.13
2022-08-01T16:57:08.357Z,1.10
2022-08-01T17:02:12.791Z,0.90
2022-08-01T17:07:16.337Z,1.00
2022-08-01T17:12:22.276Z,1.02
2022-08-01T17:17:26.551Z,8.23
2022-08-01T17:22:30.037Z,3.17
2022-08-01T17:27:34.891Z,0.95
2022-08-01T17:32:39.712Z,1.17
2022-08-01T17:37:43.852Z,1.02
2022-08-01T17:42:48.787Z,1.10
2022-08-01T17:47:52.260Z,1.10
2022-08-01T17:52:55.842Z,0.90
2022-08-01T17:58:00.659Z,0.95
2022-08-01T18:03:04.431Z,0.75
2022-08-01T18:08:11.838Z,1.08
2022-08-01T18:13:18.357Z,0.80
2022-08-01T18:18:33.128Z,0.80
2022-08-01T18:23:37.549Z,0.80
2022-08-01T18:28:46.628Z,1.00
2022-08-01T18:33:50.771Z,0.75
2022-08-01T18:38:54.268Z,8.80
2022-08-01T18:44:05.629Z,1.00
2022-08-01T18:49:13.211Z,0.60
2022-08-01T18:54:17.555Z,1.10
2022-08-01T18:59:22.465Z,0.80
2022-08-01T19:04:26.038Z,0.70
2022-08-01T19:09:29.642Z,0.80
2022-08-01T19:14:34.485Z,0.73
2022-08-01T19:19:38.035Z,0.60
2022-08-01T19:24:41.863Z,0.75
2022-08-01T19:29:54.933Z,0.70
2022-08-01T19:35:05.449Z,0.65
2022-08-01T19:40:09.874Z,0.68
2022-08-01T19:45:16.485Z,0.77
2022-08-01T19:50:20.074Z,0.65
2022-08-01T19:55:25.125Z,0.80
2022-08-01T20:00:30.324Z,1.52
2022-08-01T20:05:36.436Z,0.90
2022-08-01T20:10:41.822Z,1.00
2022-08-01T20:15:46.817Z,0.63
2022-08-01T20:20:52.534Z,1.00
2022-08-01T20:25:59.469Z,0.50
2022-08-01T20:31:08.258Z,0.55
2022-08-01T20:36:24.913Z,0.90
2022-08-01T20:41:29.819Z,1.10
2022-08-01T20:46:37.495Z,1.30
2022-08-01T20:51:42.590Z,1.35
2022-08-01T20:56:52.382Z,1.10
2022-08-01T21:02:05.269Z,0.88
2022-08-01T21:07:23.376Z,0.90
2022-08-01T21:12:28.643Z,0.90
2022-08-01T21:17:44.835Z,1.02
2022-08-01T21:22:55.982Z,1.70
2022-08-01T21:33:06.090Z,1.15
2022-08-01T21:38:10.575Z,1.17
2022-08-01T21:43:15.078Z,0.95
2022-08-01T21:48:25.917Z,0.75
2022-08-01T21:53:43.354Z,1.17
2022-08-01T21:58:56.184Z,1.00
2022-08-01T22:04:07.975Z,1.73
2022-08-01T22:09:14.365Z,1.30
2022-08-01T22:14:20.821Z,0.82
2022-08-01T22:19:37.789Z,1.00
2022-08-01T22:24:50.320Z,1.45
2022-08-01T22:29:58.551Z,1.30
2022-08-01T22:35:07.477Z,1.50
2022-08-01T22:40:13.404Z,1.40
2022-08-01T22:45:23.998Z,1.80
2022-08-01T22:50:36.736Z,1.70
2022-08-01T22:55:59.181Z,1.40
2022-08-01T23:01:04.371Z,1.90
2022-08-01T23:06:12.851Z,1.85
2022-08-01T23:11:16.416Z,1.30
2022-08-01T23:16:19.972Z,2.20
2022-08-01T23:21:25.195Z,2.50
2022-08-01T23:26:31.321Z,1.90
2022-08-01T23:31:57.583Z,2.05
2022-08-01T23:37:00.159Z,2.15
2022-08-01T23:42:07.190Z,1.90
2022-08-01T23:47:11.589Z,2.08
2022-08-01T23:52:20.817Z,2.33
2022-08-01T23:57:25.436Z,2.17
